sensor_id;sensor_type;location;lat;lon;timestamp;P1;durP1;ratioP1;P2;durP2;ratioP2
41233;SDS011;26968;42.686;23.352;2022-12-24T00:01:07;59.00;;;27.05;;
41233;SDS011;26968;42.686;23.352;2022-12-24T00:03:32;55.65;;;27.63;;
41233;SDS011;26968;42.686;23.352;2022-12-24T00:06:02;53.20;;;26.92;;
41233;SDS011;26968;42.686;23.352;2022-12-24T00:08:29;58.85;;;26.75;;
41233;SDS011;26968;42.686;23.352;2022-12-24T00:10:54;50.45;;;25.17;;
41233;SDS011;26968;42.686;23.352;2022-12-24T00:13:20;54.03;;;26.52;;
41233;SDS011;26968;42.686;23.352;2022-12-24T00:15:45;52.05;;;26.15;;
41233;SDS011;26968;42.686;23.352;2022-12-24T00:18:11;51.13;;;24.88;;
41233;SDS011;26968;42.686;23.352;2022-12-24T00:20:36;51.00;;;25.88;;
41233;SDS011;26968;42.686;23.352;2022-12-24T00:23:02;52.10;;;25.73;;
41233;SDS011;26968;42.686;23.352;2022-12-24T00:25:27;53.08;;;26.38;;
41233;SDS011;26968;42.686;23.352;2022-12-24T00:27:52;61.42;;;25.27;;
41233;SDS011;26968;42.686;23.352;2022-12-24T00:30:18;51.28;;;24.48;;
41233;SDS011;26968;42.686;23.352;2022-12-24T00:32:43;55.78;;;24.90;;
41233;SDS011;26968;42.686;23.352;2022-12-24T00:35:09;47.80;;;24.08;;
41233;SDS011;26968;42.686;23.352;2022-12-24T00:37:34;46.90;;;24.67;;
41233;SDS011;26968;42.686;23.352;2022-12-24T00:39:59;50.08;;;25.67;;
41233;SDS011;26968;42.686;23.352;2022-12-24T00:42:25;46.55;;;23.58;;
41233;SDS011;26968;42.686;23.352;2022-12-24T00:44:50;51.78;;;24.77;;
41233;SDS011;26968;42.686;23.352;2022-12-24T00:47:16;61.53;;;25.73;;
41233;SDS011;26968;42.686;23.352;2022-12-24T00:49:42;64.32;;;29.83;;
41233;SDS011;26968;42.686;23.352;2022-12-24T00:52:08;95.45;;;41.25;;
41233;SDS011;26968;42.686;23.352;2022-12-24T00:54:33;64.55;;;32.50;;
41233;SDS011;26968;42.686;23.352;2022-12-24T00:56:59;101.07;;;43.05;;
41233;SDS011;26968;42.686;23.352;2022-12-24T00:59:25;170.43;;;76.18;;
41233;SDS011;26968;42.686;23.352;2022-12-24T01:01:50;183.35;;;86.95;;
41233;SDS011;26968;42.686;23.352;2022-12-24T01:04:15;118.80;;;54.80;;
41233;SDS011;26968;42.686;23.352;2022-12-24T01:06:59;156.50;;;71.43;;
41233;SDS011;26968;42.686;23.352;2022-12-24T01:09:25;253.63;;;115.20;;
41233;SDS011;26968;42.686;23.352;2022-12-24T01:11:50;216.23;;;99.95;;
41233;SDS011;26968;42.686;23.352;2022-12-24T01:14:16;189.73;;;86.00;;
41233;SDS011;26968;42.686;23.352;2022-12-24T01:16:41;186.90;;;83.53;;
41233;SDS011;26968;42.686;23.352;2022-12-24T01:19:06;116.38;;;56.13;;
41233;SDS011;26968;42.686;23.352;2022-12-24T01:21:32;152.23;;;71.47;;
41233;SDS011;26968;42.686;23.352;2022-12-24T01:23:57;247.77;;;113.38;;
41233;SDS011;26968;42.686;23.352;2022-12-24T01:26:23;222.20;;;103.30;;
41233;SDS011;26968;42.686;23.352;2022-12-24T01:28:48;193.02;;;92.32;;
41233;SDS011;26968;42.686;23.352;2022-12-24T01:31:15;152.70;;;71.88;;
41233;SDS011;26968;42.686;23.352;2022-12-24T01:33:42;155.02;;;66.13;;
41233;SDS011;26968;42.686;23.352;2022-12-24T01:36:09;162.98;;;72.68;;
41233;SDS011;26968;42.686;23.352;2022-12-24T01:38:35;164.95;;;78.57;;
41233;SDS011;26968;42.686;23.352;2022-12-24T01:41:01;164.50;;;73.55;;
41233;SDS011;26968;42.686;23.352;2022-12-24T01:43:45;162.50;;;75.00;;
41233;SDS011;26968;42.686;23.352;2022-12-24T01:46:13;168.55;;;78.65;;
41233;SDS011;26968;42.686;23.352;2022-12-24T01:48:54;180.23;;;79.55;;
41233;SDS011;26968;42.686;23.352;2022-12-24T01:53:54;181.02;;;82.65;;
41233;SDS011;26968;42.686;23.352;2022-12-24T01:56:22;193.93;;;86.70;;
41233;SDS011;26968;42.686;23.352;2022-12-24T01:58:51;176.25;;;83.90;;
41233;SDS011;26968;42.686;23.352;2022-12-24T02:01:20;173.30;;;81.28;;
41233;SDS011;26968;42.686;23.352;2022-12-24T02:03:45;184.15;;;85.32;;
41233;SDS011;26968;42.686;23.352;2022-12-24T02:06:11;193.90;;;89.63;;
41233;SDS011;26968;42.686;23.352;2022-12-24T02:08:41;214.88;;;94.22;;
41233;SDS011;26968;42.686;23.352;2022-12-24T02:13:50;183.48;;;86.63;;
41233;SDS011;26968;42.686;23.352;2022-12-24T02:21:54;180.75;;;86.60;;
41233;SDS011;26968;42.686;23.352;2022-12-24T02:27:12;184.05;;;88.63;;
41233;SDS011;26968;42.686;23.352;2022-12-24T02:35:12;197.77;;;89.85;;
41233;SDS011;26968;42.686;23.352;2022-12-24T02:37:43;201.05;;;91.35;;
41233;SDS011;26968;42.686;23.352;2022-12-24T02:40:25;189.40;;;88.25;;
41233;SDS011;26968;42.686;23.352;2022-12-24T02:42:54;191.10;;;89.80;;
41233;SDS011;26968;42.686;23.352;2022-12-24T02:47:53;180.57;;;88.30;;
41233;SDS011;26968;42.686;23.352;2022-12-24T02:50:19;189.63;;;90.35;;
41233;SDS011;26968;42.686;23.352;2022-12-24T02:52:45;185.85;;;89.35;;
41233;SDS011;26968;42.686;23.352;2022-12-24T03:01:05;188.52;;;90.93;;
41233;SDS011;26968;42.686;23.352;2022-12-24T03:04:06;190.73;;;89.22;;
41233;SDS011;26968;42.686;23.352;2022-12-24T03:06:43;206.40;;;94.13;;
41233;SDS011;26968;42.686;23.352;2022-12-24T03:09:35;234.02;;;104.03;;
41233;SDS011;26968;42.686;23.352;2022-12-24T03:12:16;227.55;;;104.75;;
41233;SDS011;26968;42.686;23.352;2022-12-24T03:14:45;218.63;;;101.22;;
41233;SDS011;26968;42.686;23.352;2022-12-24T03:17:13;231.27;;;105.25;;
41233;SDS011;26968;42.686;23.352;2022-12-24T03:19:39;205.07;;;99.20;;
41233;SDS011;26968;42.686;23.352;2022-12-24T03:22:06;240.18;;;109.32;;
41233;SDS011;26968;42.686;23.352;2022-12-24T03:24:34;225.18;;;105.88;;
41233;SDS011;26968;42.686;23.352;2022-12-24T03:27:00;223.35;;;106.00;;
41233;SDS011;26968;42.686;23.352;2022-12-24T03:29:26;236.40;;;109.85;;
41233;SDS011;26968;42.686;23.352;2022-12-24T03:31:52;217.80;;;102.35;;
41233;SDS011;26968;42.686;23.352;2022-12-24T03:34:25;231.82;;;105.22;;
41233;SDS011;26968;42.686;23.352;2022-12-24T03:36:50;227.80;;;105.45;;
41233;SDS011;26968;42.686;23.352;2022-12-24T03:39:16;247.90;;;109.22;;
41233;SDS011;26968;42.686;23.352;2022-12-24T03:41:41;225.85;;;107.43;;
41233;SDS011;26968;42.686;23.352;2022-12-24T03:44:07;230.23;;;106.03;;
41233;SDS011;26968;42.686;23.352;2022-12-24T03:46:32;234.60;;;108.38;;
41233;SDS011;26968;42.686;23.352;2022-12-24T03:48:58;224.10;;;109.32;;
41233;SDS011;26968;42.686;23.352;2022-12-24T03:51:24;238.48;;;109.85;;
41233;SDS011;26968;42.686;23.352;2022-12-24T03:53:55;222.50;;;104.72;;
41233;SDS011;26968;42.686;23.352;2022-12-24T03:56:21;223.05;;;103.43;;
41233;SDS011;26968;42.686;23.352;2022-12-24T03:58:47;219.90;;;102.15;;
41233;SDS011;26968;42.686;23.352;2022-12-24T04:01:13;213.88;;;99.68;;
41233;SDS011;26968;42.686;23.352;2022-12-24T04:03:40;228.85;;;103.47;;
41233;SDS011;26968;42.686;23.352;2022-12-24T04:08:33;219.15;;;100.00;;
41233;SDS011;26968;42.686;23.352;2022-12-24T04:10:59;211.57;;;95.90;;
41233;SDS011;26968;42.686;23.352;2022-12-24T04:13:25;211.52;;;94.32;;
41233;SDS011;26968;42.686;23.352;2022-12-24T04:16:00;202.05;;;95.45;;
41233;SDS011;26968;42.686;23.352;2022-12-24T04:18:28;208.20;;;95.85;;
41233;SDS011;26968;42.686;23.352;2022-12-24T04:20:53;212.95;;;97.80;;
41233;SDS011;26968;42.686;23.352;2022-12-24T04:23:19;222.32;;;101.13;;
41233;SDS011;26968;42.686;23.352;2022-12-24T04:25:44;225.88;;;111.63;;
41233;SDS011;26968;42.686;23.352;2022-12-24T04:28:10;225.45;;;110.07;;
41233;SDS011;26968;42.686;23.352;2022-12-24T04:30:37;232.77;;;112.90;;
41233;SDS011;26968;42.686;23.352;2022-12-24T04:33:03;218.60;;;107.40;;
41233;SDS011;26968;42.686;23.352;2022-12-24T04:35:29;204.38;;;101.68;;
41233;SDS011;26968;42.686;23.352;2022-12-24T04:37:54;208.13;;;99.70;;
41233;SDS011;26968;42.686;23.352;2022-12-24T04:40:19;214.80;;;100.40;;
41233;SDS011;26968;42.686;23.352;2022-12-24T04:42:45;206.48;;;100.45;;
41233;SDS011;26968;42.686;23.352;2022-12-24T04:45:10;220.05;;;102.65;;
41233;SDS011;26968;42.686;23.352;2022-12-24T04:47:36;208.20;;;99.60;;
41233;SDS011;26968;42.686;23.352;2022-12-24T04:50:01;210.85;;;101.15;;
41233;SDS011;26968;42.686;23.352;2022-12-24T04:52:27;208.40;;;98.28;;
41233;SDS011;26968;42.686;23.352;2022-12-24T04:54:53;219.80;;;103.45;;
41233;SDS011;26968;42.686;23.352;2022-12-24T04:57:18;213.57;;;99.07;;
41233;SDS011;26968;42.686;23.352;2022-12-24T04:59:43;202.70;;;96.65;;
41233;SDS011;26968;42.686;23.352;2022-12-24T05:02:09;210.63;;;99.82;;
41233;SDS011;26968;42.686;23.352;2022-12-24T05:04:34;205.73;;;96.40;;
41233;SDS011;26968;42.686;23.352;2022-12-24T05:07:00;198.32;;;93.00;;
41233;SDS011;26968;42.686;23.352;2022-12-24T05:09:25;191.65;;;90.68;;
41233;SDS011;26968;42.686;23.352;2022-12-24T05:11:51;197.18;;;95.45;;
41233;SDS011;26968;42.686;23.352;2022-12-24T05:14:16;196.07;;;92.40;;
41233;SDS011;26968;42.686;23.352;2022-12-24T05:16:42;194.65;;;95.85;;
41233;SDS011;26968;42.686;23.352;2022-12-24T05:19:08;194.75;;;94.30;;
41233;SDS011;26968;42.686;23.352;2022-12-24T05:21:33;199.20;;;93.03;;
41233;SDS011;26968;42.686;23.352;2022-12-24T05:23:59;184.95;;;87.18;;
41233;SDS011;26968;42.686;23.352;2022-12-24T05:26:50;184.32;;;84.05;;
41233;SDS011;26968;42.686;23.352;2022-12-24T05:29:18;180.93;;;87.57;;
41233;SDS011;26968;42.686;23.352;2022-12-24T05:31:44;200.52;;;96.97;;
41233;SDS011;26968;42.686;23.352;2022-12-24T05:34:11;215.98;;;103.00;;
41233;SDS011;26968;42.686;23.352;2022-12-24T05:36:38;210.82;;;100.20;;
41233;SDS011;26968;42.686;23.352;2022-12-24T05:39:04;219.65;;;103.53;;
41233;SDS011;26968;42.686;23.352;2022-12-24T05:41:30;236.32;;;106.82;;
41233;SDS011;26968;42.686;23.352;2022-12-24T05:43:56;229.20;;;104.80;;
41233;SDS011;26968;42.686;23.352;2022-12-24T05:46:22;206.20;;;100.28;;
41233;SDS011;26968;42.686;23.352;2022-12-24T05:48:49;207.60;;;98.07;;
41233;SDS011;26968;42.686;23.352;2022-12-24T05:51:16;231.25;;;102.55;;
41233;SDS011;26968;42.686;23.352;2022-12-24T05:53:43;222.98;;;102.18;;
41233;SDS011;26968;42.686;23.352;2022-12-24T05:56:11;225.98;;;107.13;;
41233;SDS011;26968;42.686;23.352;2022-12-24T05:58:39;224.68;;;104.05;;
41233;SDS011;26968;42.686;23.352;2022-12-24T06:01:05;225.93;;;105.47;;
41233;SDS011;26968;42.686;23.352;2022-12-24T06:03:32;214.20;;;99.60;;
41233;SDS011;26968;42.686;23.352;2022-12-24T06:05:59;229.30;;;104.28;;
41233;SDS011;26968;42.686;23.352;2022-12-24T06:08:25;225.77;;;101.88;;
41233;SDS011;26968;42.686;23.352;2022-12-24T06:10:57;221.38;;;98.47;;
41233;SDS011;26968;42.686;23.352;2022-12-24T06:13:24;227.10;;;100.55;;
41233;SDS011;26968;42.686;23.352;2022-12-24T06:15:50;217.35;;;98.75;;
41233;SDS011;26968;42.686;23.352;2022-12-24T06:18:19;198.82;;;94.82;;
41233;SDS011;26968;42.686;23.352;2022-12-24T06:20:44;212.38;;;93.95;;
41233;SDS011;26968;42.686;23.352;2022-12-24T06:23:10;205.63;;;93.10;;
41233;SDS011;26968;42.686;23.352;2022-12-24T06:25:35;190.05;;;87.35;;
41233;SDS011;26968;42.686;23.352;2022-12-24T06:28:01;187.60;;;85.68;;
41233;SDS011;26968;42.686;23.352;2022-12-24T06:30:26;183.40;;;87.35;;
41233;SDS011;26968;42.686;23.352;2022-12-24T06:32:52;193.00;;;89.13;;
41233;SDS011;26968;42.686;23.352;2022-12-24T06:35:17;194.15;;;88.55;;
41233;SDS011;26968;42.686;23.352;2022-12-24T06:37:42;197.43;;;91.68;;
41233;SDS011;26968;42.686;23.352;2022-12-24T06:40:08;215.75;;;90.82;;
41233;SDS011;26968;42.686;23.352;2022-12-24T06:42:34;216.02;;;91.78;;
41233;SDS011;26968;42.686;23.352;2022-12-24T06:44:59;209.88;;;88.82;;
41233;SDS011;26968;42.686;23.352;2022-12-24T06:47:24;207.75;;;94.60;;
41233;SDS011;26968;42.686;23.352;2022-12-24T06:49:50;207.88;;;93.30;;
41233;SDS011;26968;42.686;23.352;2022-12-24T06:52:15;203.50;;;90.82;;
41233;SDS011;26968;42.686;23.352;2022-12-24T06:54:41;216.32;;;96.88;;
41233;SDS011;26968;42.686;23.352;2022-12-24T06:57:06;215.57;;;96.85;;
41233;SDS011;26968;42.686;23.352;2022-12-24T06:59:32;211.63;;;96.13;;
41233;SDS011;26968;42.686;23.352;2022-12-24T07:01:57;237.43;;;102.07;;
41233;SDS011;26968;42.686;23.352;2022-12-24T07:04:22;240.82;;;106.50;;
41233;SDS011;26968;42.686;23.352;2022-12-24T07:06:48;235.48;;;102.03;;
41233;SDS011;26968;42.686;23.352;2022-12-24T07:09:13;234.43;;;102.95;;
41233;SDS011;26968;42.686;23.352;2022-12-24T07:11:39;223.27;;;99.60;;
41233;SDS011;26968;42.686;23.352;2022-12-24T07:14:04;208.23;;;93.20;;
41233;SDS011;26968;42.686;23.352;2022-12-24T07:16:30;199.07;;;92.97;;
41233;SDS011;26968;42.686;23.352;2022-12-24T07:18:55;205.10;;;96.57;;
41233;SDS011;26968;42.686;23.352;2022-12-24T07:21:20;192.10;;;93.18;;
41233;SDS011;26968;42.686;23.352;2022-12-24T07:23:46;192.23;;;88.80;;
41233;SDS011;26968;42.686;23.352;2022-12-24T07:26:11;187.18;;;87.97;;
41233;SDS011;26968;42.686;23.352;2022-12-24T07:28:37;163.32;;;82.28;;
41233;SDS011;26968;42.686;23.352;2022-12-24T07:31:02;174.88;;;80.72;;
41233;SDS011;26968;42.686;23.352;2022-12-24T07:33:28;153.38;;;71.30;;
41233;SDS011;26968;42.686;23.352;2022-12-24T07:36:36;147.65;;;72.80;;
41233;SDS011;26968;42.686;23.352;2022-12-24T07:38:44;147.95;;;70.25;;
41233;SDS011;26968;42.686;23.352;2022-12-24T07:41:10;149.88;;;71.80;;
41233;SDS011;26968;42.686;23.352;2022-12-24T07:43:35;132.00;;;67.15;;
41233;SDS011;26968;42.686;23.352;2022-12-24T07:46:01;141.93;;;67.10;;
41233;SDS011;26968;42.686;23.352;2022-12-24T07:48:27;140.75;;;68.82;;
41233;SDS011;26968;42.686;23.352;2022-12-24T07:50:53;143.23;;;68.65;;
41233;SDS011;26968;42.686;23.352;2022-12-24T07:53:19;152.10;;;69.10;;
41233;SDS011;26968;42.686;23.352;2022-12-24T07:55:45;129.93;;;63.67;;
41233;SDS011;26968;42.686;23.352;2022-12-24T07:58:10;116.93;;;55.80;;
41233;SDS011;26968;42.686;23.352;2022-12-24T08:00:36;109.88;;;54.92;;
41233;SDS011;26968;42.686;23.352;2022-12-24T08:03:01;114.50;;;55.53;;
41233;SDS011;26968;42.686;23.352;2022-12-24T08:05:27;129.75;;;59.75;;
41233;SDS011;26968;42.686;23.352;2022-12-24T08:07:53;127.28;;;60.13;;
41233;SDS011;26968;42.686;23.352;2022-12-24T08:10:19;165.70;;;72.18;;
41233;SDS011;26968;42.686;23.352;2022-12-24T08:12:45;161.85;;;81.45;;
41233;SDS011;26968;42.686;23.352;2022-12-24T08:15:12;181.38;;;81.70;;
41233;SDS011;26968;42.686;23.352;2022-12-24T08:17:37;173.20;;;78.25;;
41233;SDS011;26968;42.686;23.352;2022-12-24T08:20:03;168.05;;;79.43;;
41233;SDS011;26968;42.686;23.352;2022-12-24T08:22:29;172.40;;;79.10;;
41233;SDS011;26968;42.686;23.352;2022-12-24T08:24:55;174.93;;;81.22;;
41233;SDS011;26968;42.686;23.352;2022-12-24T08:27:20;175.98;;;82.72;;
41233;SDS011;26968;42.686;23.352;2022-12-24T08:29:46;178.57;;;80.13;;
41233;SDS011;26968;42.686;23.352;2022-12-24T08:32:11;167.70;;;77.18;;
41233;SDS011;26968;42.686;23.352;2022-12-24T08:34:37;185.75;;;79.00;;
41233;SDS011;26968;42.686;23.352;2022-12-24T08:37:02;165.27;;;76.10;;
41233;SDS011;26968;42.686;23.352;2022-12-24T08:39:28;163.25;;;78.75;;
41233;SDS011;26968;42.686;23.352;2022-12-24T08:41:53;162.88;;;80.63;;
41233;SDS011;26968;42.686;23.352;2022-12-24T08:44:18;150.32;;;76.10;;
41233;SDS011;26968;42.686;23.352;2022-12-24T08:46:44;154.23;;;73.03;;
41233;SDS011;26968;42.686;23.352;2022-12-24T08:49:10;145.95;;;67.97;;
41233;SDS011;26968;42.686;23.352;2022-12-24T08:51:36;144.27;;;70.07;;
41233;SDS011;26968;42.686;23.352;2022-12-24T08:54:01;137.50;;;69.40;;
41233;SDS011;26968;42.686;23.352;2022-12-24T08:56:27;139.60;;;67.00;;
41233;SDS011;26968;42.686;23.352;2022-12-24T08:58:52;137.65;;;66.57;;
41233;SDS011;26968;42.686;23.352;2022-12-24T09:01:18;137.25;;;68.65;;
41233;SDS011;26968;42.686;23.352;2022-12-24T09:03:45;141.27;;;74.47;;
41233;SDS011;26968;42.686;23.352;2022-12-24T09:06:10;156.38;;;73.80;;
41233;SDS011;26968;42.686;23.352;2022-12-24T09:08:36;153.88;;;78.85;;
41233;SDS011;26968;42.686;23.352;2022-12-24T09:11:06;159.45;;;77.38;;
41233;SDS011;26968;42.686;23.352;2022-12-24T09:13:36;160.35;;;76.97;;
41233;SDS011;26968;42.686;23.352;2022-12-24T09:16:03;158.77;;;77.50;;
41233;SDS011;26968;42.686;23.352;2022-12-24T09:18:29;145.80;;;71.68;;
41233;SDS011;26968;42.686;23.352;2022-12-24T09:20:58;146.82;;;69.07;;
41233;SDS011;26968;42.686;23.352;2022-12-24T09:23:28;154.05;;;70.30;;
41233;SDS011;26968;42.686;23.352;2022-12-24T09:25:54;150.77;;;73.40;;
41233;SDS011;26968;42.686;23.352;2022-12-24T09:28:20;149.95;;;72.10;;
41233;SDS011;26968;42.686;23.352;2022-12-24T09:30:56;159.48;;;76.53;;
41233;SDS011;26968;42.686;23.352;2022-12-24T09:33:27;143.88;;;70.18;;
41233;SDS011;26968;42.686;23.352;2022-12-24T09:35:53;157.80;;;71.57;;
41233;SDS011;26968;42.686;23.352;2022-12-24T09:38:19;139.57;;;69.30;;
41233;SDS011;26968;42.686;23.352;2022-12-24T09:40:45;134.82;;;62.17;;
41233;SDS011;26968;42.686;23.352;2022-12-24T09:43:22;134.85;;;59.85;;
41233;SDS011;26968;42.686;23.352;2022-12-24T09:48:33;139.48;;;58.17;;
41233;SDS011;26968;42.686;23.352;2022-12-24T09:51:07;120.70;;;57.00;;
41233;SDS011;26968;42.686;23.352;2022-12-24T09:53:42;121.53;;;57.75;;
41233;SDS011;26968;42.686;23.352;2022-12-24T09:56:22;119.57;;;55.97;;
41233;SDS011;26968;42.686;23.352;2022-12-24T09:59:02;121.32;;;57.25;;
41233;SDS011;26968;42.686;23.352;2022-12-24T10:01:29;125.15;;;56.80;;
41233;SDS011;26968;42.686;23.352;2022-12-24T10:03:59;114.68;;;55.17;;
41233;SDS011;26968;42.686;23.352;2022-12-24T10:06:37;119.45;;;57.05;;
41233;SDS011;26968;42.686;23.352;2022-12-24T10:15:02;125.07;;;57.47;;
41233;SDS011;26968;42.686;23.352;2022-12-24T10:17:50;119.18;;;56.45;;
41233;SDS011;26968;42.686;23.352;2022-12-24T10:22:59;112.22;;;54.47;;
41233;SDS011;26968;42.686;23.352;2022-12-24T10:28:16;119.63;;;57.45;;
41233;SDS011;26968;42.686;23.352;2022-12-24T10:30:44;104.18;;;53.95;;
41233;SDS011;26968;42.686;23.352;2022-12-24T10:33:57;117.88;;;57.35;;
41233;SDS011;26968;42.686;23.352;2022-12-24T10:36:09;119.30;;;57.53;;
41233;SDS011;26968;42.686;23.352;2022-12-24T10:38:40;113.70;;;55.92;;
41233;SDS011;26968;42.686;23.352;2022-12-24T10:41:06;107.80;;;53.97;;
41233;SDS011;26968;42.686;23.352;2022-12-24T10:43:32;108.68;;;54.08;;
41233;SDS011;26968;42.686;23.352;2022-12-24T10:46:02;115.00;;;57.20;;
41233;SDS011;26968;42.686;23.352;2022-12-24T10:48:35;112.20;;;57.55;;
41233;SDS011;26968;42.686;23.352;2022-12-24T10:51:09;115.88;;;58.13;;
41233;SDS011;26968;42.686;23.352;2022-12-24T10:53:50;117.72;;;56.90;;
41233;SDS011;26968;42.686;23.352;2022-12-24T10:56:21;117.88;;;57.50;;
41233;SDS011;26968;42.686;23.352;2022-12-24T10:58:50;111.38;;;55.38;;
41233;SDS011;26968;42.686;23.352;2022-12-24T11:01:18;112.90;;;54.13;;
41233;SDS011;26968;42.686;23.352;2022-12-24T11:03:45;109.70;;;54.95;;
41233;SDS011;26968;42.686;23.352;2022-12-24T11:06:24;106.45;;;55.78;;
41233;SDS011;26968;42.686;23.352;2022-12-24T11:08:49;113.50;;;55.47;;
41233;SDS011;26968;42.686;23.352;2022-12-24T11:11:16;101.35;;;53.97;;
41233;SDS011;26968;42.686;23.352;2022-12-24T11:16:28;116.43;;;56.85;;
41233;SDS011;26968;42.686;23.352;2022-12-24T11:18:57;122.28;;;57.58;;
41233;SDS011;26968;42.686;23.352;2022-12-24T11:21:28;99.95;;;53.15;;
41233;SDS011;26968;42.686;23.352;2022-12-24T11:26:31;117.88;;;53.75;;
41233;SDS011;26968;42.686;23.352;2022-12-24T11:29:18;114.65;;;53.00;;
41233;SDS011;26968;42.686;23.352;2022-12-24T11:31:46;110.88;;;54.80;;
41233;SDS011;26968;42.686;23.352;2022-12-24T11:34:31;109.10;;;52.20;;
41233;SDS011;26968;42.686;23.352;2022-12-24T11:37:09;112.95;;;53.60;;
41233;SDS011;26968;42.686;23.352;2022-12-24T11:39:51;106.95;;;54.50;;
41233;SDS011;26968;42.686;23.352;2022-12-24T11:44:59;108.65;;;54.60;;
41233;SDS011;26968;42.686;23.352;2022-12-24T11:47:35;103.55;;;52.83;;
41233;SDS011;26968;42.686;23.352;2022-12-24T12:04:34;61.70;;;32.13;;
41233;SDS011;26968;42.686;23.352;2022-12-24T12:07:03;65.78;;;33.90;;
41233;SDS011;26968;42.686;23.352;2022-12-24T12:09:37;70.22;;;34.50;;
41233;SDS011;26968;42.686;23.352;2022-12-24T12:12:10;69.15;;;36.13;;
41233;SDS011;26968;42.686;23.352;2022-12-24T12:14:49;64.60;;;35.10;;
41233;SDS011;26968;42.686;23.352;2022-12-24T12:20:05;66.13;;;33.97;;
41233;SDS011;26968;42.686;23.352;2022-12-24T12:25:02;68.43;;;35.00;;
41233;SDS011;26968;42.686;23.352;2022-12-24T12:27:42;61.50;;;34.10;;
41233;SDS011;26968;42.686;23.352;2022-12-24T12:30:16;61.47;;;33.67;;
41233;SDS011;26968;42.686;23.352;2022-12-24T12:32:49;70.93;;;35.53;;
41233;SDS011;26968;42.686;23.352;2022-12-24T12:37:59;79.22;;;39.60;;
41233;SDS011;26968;42.686;23.352;2022-12-24T12:43:25;92.88;;;43.72;;
41233;SDS011;26968;42.686;23.352;2022-12-24T12:46:01;97.35;;;45.58;;
41233;SDS011;26968;42.686;23.352;2022-12-24T12:51:49;104.40;;;48.85;;
41233;SDS011;26968;42.686;23.352;2022-12-24T12:57:40;117.03;;;53.97;;
41233;SDS011;26968;42.686;23.352;2022-12-24T13:00:07;119.45;;;58.25;;
41233;SDS011;26968;42.686;23.352;2022-12-24T13:02:40;116.68;;;57.03;;
41233;SDS011;26968;42.686;23.352;2022-12-24T13:10:25;127.13;;;55.67;;
41233;SDS011;26968;42.686;23.352;2022-12-24T13:18:43;116.25;;;56.70;;
41233;SDS011;26968;42.686;23.352;2022-12-24T13:21:19;121.05;;;58.85;;
41233;SDS011;26968;42.686;23.352;2022-12-24T13:23:47;116.75;;;59.92;;
41233;SDS011;26968;42.686;23.352;2022-12-24T13:26:13;126.53;;;62.35;;
41233;SDS011;26968;42.686;23.352;2022-12-24T13:28:39;118.20;;;62.13;;
41233;SDS011;26968;42.686;23.352;2022-12-24T13:33:49;123.20;;;62.97;;
41233;SDS011;26968;42.686;23.352;2022-12-24T13:36:20;136.80;;;65.75;;
41233;SDS011;26968;42.686;23.352;2022-12-24T13:38:47;130.50;;;67.93;;
41233;SDS011;26968;42.686;23.352;2022-12-24T13:47:04;131.35;;;67.38;;
41233;SDS011;26968;42.686;23.352;2022-12-24T13:49:38;137.77;;;66.28;;
41233;SDS011;26968;42.686;23.352;2022-12-24T13:54:36;130.55;;;66.93;;
41233;SDS011;26968;42.686;23.352;2022-12-24T14:00:04;143.05;;;71.47;;
41233;SDS011;26968;42.686;23.352;2022-12-24T14:02:33;141.98;;;71.93;;
41233;SDS011;26968;42.686;23.352;2022-12-24T14:05:04;154.07;;;75.30;;
41233;SDS011;26968;42.686;23.352;2022-12-24T14:07:33;148.90;;;72.80;;
41233;SDS011;26968;42.686;23.352;2022-12-24T14:10:00;144.20;;;72.22;;
41233;SDS011;26968;42.686;23.352;2022-12-24T14:12:45;144.27;;;70.35;;
41233;SDS011;26968;42.686;23.352;2022-12-24T14:18:09;156.90;;;77.38;;
41233;SDS011;26968;42.686;23.352;2022-12-24T14:20:40;153.27;;;79.28;;
41233;SDS011;26968;42.686;23.352;2022-12-24T14:23:06;154.68;;;80.55;;
41233;SDS011;26968;42.686;23.352;2022-12-24T14:25:47;150.85;;;76.93;;
41233;SDS011;26968;42.686;23.352;2022-12-24T14:28:14;155.25;;;73.53;;
41233;SDS011;26968;42.686;23.352;2022-12-24T14:30:43;152.27;;;76.43;;
41233;SDS011;26968;42.686;23.352;2022-12-24T14:35:57;151.48;;;73.88;;
41233;SDS011;26968;42.686;23.352;2022-12-24T14:38:24;145.68;;;72.97;;
41233;SDS011;26968;42.686;23.352;2022-12-24T14:54:47;159.95;;;81.82;;
41233;SDS011;26968;42.686;23.352;2022-12-24T14:57:20;152.13;;;80.03;;
41233;SDS011;26968;42.686;23.352;2022-12-24T14:59:54;145.77;;;78.68;;
41233;SDS011;26968;42.686;23.352;2022-12-24T15:02:29;152.93;;;77.95;;
41233;SDS011;26968;42.686;23.352;2022-12-24T15:07:31;148.23;;;68.07;;
41233;SDS011;26968;42.686;23.352;2022-12-24T15:10:00;129.73;;;64.95;;
41233;SDS011;26968;42.686;23.352;2022-12-24T15:12:27;105.97;;;56.17;;
41233;SDS011;26968;42.686;23.352;2022-12-24T15:14:53;99.03;;;51.13;;
41233;SDS011;26968;42.686;23.352;2022-12-24T15:17:18;77.47;;;41.80;;
41233;SDS011;26968;42.686;23.352;2022-12-24T15:19:45;101.88;;;47.13;;
41233;SDS011;26968;42.686;23.352;2022-12-24T15:22:21;73.22;;;40.92;;
41233;SDS011;26968;42.686;23.352;2022-12-24T15:24:47;73.40;;;37.80;;
41233;SDS011;26968;42.686;23.352;2022-12-24T15:29:48;45.92;;;25.67;;
41233;SDS011;26968;42.686;23.352;2022-12-24T15:32:17;42.85;;;22.45;;
41233;SDS011;26968;42.686;23.352;2022-12-24T15:34:53;41.03;;;22.05;;
41233;SDS011;26968;42.686;23.352;2022-12-24T15:37:23;34.45;;;18.65;;
41233;SDS011;26968;42.686;23.352;2022-12-24T15:39:52;37.63;;;17.63;;
41233;SDS011;26968;42.686;23.352;2022-12-24T15:42:19;29.95;;;16.83;;
41233;SDS011;26968;42.686;23.352;2022-12-24T15:47:34;33.53;;;17.67;;
41233;SDS011;26968;42.686;23.352;2022-12-24T15:50:24;35.50;;;17.55;;
41233;SDS011;26968;42.686;23.352;2022-12-24T15:52:50;25.45;;;14.48;;
41233;SDS011;26968;42.686;23.352;2022-12-24T15:58:15;25.13;;;12.80;;
41233;SDS011;26968;42.686;23.352;2022-12-24T16:00:42;25.38;;;13.35;;
41233;SDS011;26968;42.686;23.352;2022-12-24T16:03:09;26.65;;;13.75;;
41233;SDS011;26968;42.686;23.352;2022-12-24T16:05:42;27.60;;;14.68;;
41233;SDS011;26968;42.686;23.352;2022-12-24T16:10:43;24.50;;;13.57;;
41233;SDS011;26968;42.686;23.352;2022-12-24T16:15:48;30.77;;;15.07;;
41233;SDS011;26968;42.686;23.352;2022-12-24T16:18:17;31.90;;;16.77;;
41233;SDS011;26968;42.686;23.352;2022-12-24T16:20:48;40.95;;;17.35;;
41233;SDS011;26968;42.686;23.352;2022-12-24T16:23:19;44.75;;;23.45;;
41233;SDS011;26968;42.686;23.352;2022-12-24T16:25:47;57.10;;;27.48;;
41233;SDS011;26968;42.686;23.352;2022-12-24T16:28:13;68.18;;;33.53;;